createdAt,value
2023-03-11T00:00:27.040Z,93524.00
2023-03-11T00:01:27.084Z,93526.00
2023-03-11T00:02:27.120Z,93532.00
2023-03-11T00:03:27.035Z,93536.00
2023-03-11T00:04:27.018Z,93536.00
2023-03-11T00:05:27.057Z,93532.00
2023-03-11T00:08:26.987Z,93522.00
2023-03-11T00:11:26.961Z,93520.00
2023-03-11T00:12:27.258Z,93528.00
2023-03-11T00:13:26.964Z,93524.00
2023-03-11T00:14:26.966Z,93522.00
2023-03-11T00:15:26.976Z,93526.00
2023-03-11T00:16:27.013Z,93526.00
2023-03-11T00:17:26.956Z,93534.00
2023-03-11T00:18:27.027Z,93538.00
2023-03-11T00:19:26.928Z,93536.00
2023-03-11T00:20:26.918Z,93538.00
2023-03-11T00:21:26.921Z,93534.00
2023-03-11T00:22:26.907Z,93532.00
2023-03-11T00:23:27.021Z,93534.00
2023-03-11T00:24:26.899Z,93538.00
2023-03-11T00:25:26.895Z,93542.00
2023-03-11T00:26:26.925Z,93542.00
2023-03-11T00:27:26.914Z,93544.00
2023-03-11T00:28:26.962Z,93550.00
2023-03-11T00:29:26.961Z,93554.00
2023-03-11T00:30:26.985Z,93550.00
2023-03-11T00:31:26.974Z,93550.00
2023-03-11T00:32:27.024Z,93544.00
2023-03-11T00:33:26.984Z,93540.00
2023-03-11T06:35:32.873Z,93816.00
2023-03-11T06:37:32.842Z,93820.00
2023-03-11T06:38:32.846Z,93818.00
2023-03-11T06:39:32.910Z,93818.00
2023-03-11T06:40:32.913Z,93822.00
2023-03-11T06:41:32.900Z,93822.00
2023-03-11T06:42:32.947Z,93822.00
2023-03-11T06:43:32.948Z,93824.00
2023-03-11T06:44:32.967Z,93824.00
2023-03-11T06:45:32.997Z,93824.00
2023-03-11T06:46:33.010Z,93824.00
2023-03-11T06:47:33.065Z,93830.00
2023-03-11T06:48:33.071Z,93830.00
2023-03-11T06:49:33.117Z,93832.00
2023-03-11T06:50:33.134Z,93834.00
2023-03-11T06:51:33.112Z,93840.00
2023-03-11T06:52:33.144Z,93840.00
2023-03-11T06:53:33.134Z,93840.00
2023-03-11T06:54:33.171Z,93840.00
2023-03-11T06:55:33.212Z,93838.00
2023-03-11T06:56:33.238Z,93840.00
2023-03-11T06:57:33.237Z,93844.00
2023-03-11T06:58:33.307Z,93846.00
2023-03-11T06:59:33.291Z,93850.00
2023-03-11T07:00:33.283Z,93852.00
2023-03-11T07:01:33.437Z,93852.00
2023-03-11T07:02:33.378Z,93854.00
2023-03-11T07:03:33.336Z,93852.00
2023-03-11T07:04:33.410Z,93850.00
2023-03-11T07:05:33.426Z,93852.00
2023-03-11T07:06:33.425Z,93856.00
2023-03-11T07:07:33.452Z,93863.00
2023-03-11T07:08:33.474Z,93865.00
2023-03-11T07:09:33.483Z,93856.00
2023-03-11T07:10:33.511Z,93867.00
2023-03-11T07:11:33.557Z,93867.00
2023-03-11T07:12:33.544Z,93867.00
2023-03-11T07:13:33.567Z,93871.00
2023-03-11T07:14:33.569Z,93869.00
2023-03-11T07:15:33.620Z,93873.00
2023-03-11T08:12:34.672Z,93948.00
2023-03-11T08:13:34.674Z,93948.00
2023-03-11T08:14:34.705Z,93951.00
2023-03-11T08:15:34.805Z,93951.00
2023-03-11T08:16:34.698Z,93951.00
2023-03-11T08:17:34.723Z,93957.00
2023-03-11T08:18:34.722Z,93953.00
2023-03-11T08:19:34.755Z,93951.00
2023-03-11T08:20:34.774Z,93951.00
2023-03-11T08:21:34.772Z,93953.00
2023-03-11T08:22:34.788Z,93955.00
2023-03-11T08:23:34.788Z,93955.00
2023-03-11T08:24:34.832Z,93959.00
2023-03-11T08:25:34.811Z,93961.00
2023-03-11T08:26:34.884Z,93963.00
2023-03-11T08:27:34.853Z,93963.00
2023-03-11T08:28:34.863Z,93963.00
2023-03-11T08:29:34.884Z,93969.00
2023-03-11T08:30:34.912Z,93965.00
2023-03-11T08:31:35.027Z,93965.00
2023-03-11T08:32:34.948Z,93963.00
2023-03-11T08:33:34.928Z,93959.00
2023-03-11T08:34:34.938Z,93959.00
2023-03-11T08:35:34.998Z,93957.00
2023-03-11T09:28:35.235Z,93961.00
2023-03-11T09:29:35.263Z,93961.00
2023-03-11T09:30:35.283Z,93955.00
2023-03-11T09:31:35.321Z,93949.00
2023-03-11T09:32:35.393Z,93949.00
2023-03-11T09:33:35.274Z,93946.00
2023-03-11T09:34:35.324Z,93949.00
2023-03-11T09:35:35.420Z,93949.00
2023-03-11T09:36:35.384Z,93951.00
2023-03-11T09:37:35.436Z,93955.00
2023-03-11T09:38:35.465Z,93955.00
2023-03-11T09:39:35.485Z,93951.00
2023-03-11T09:40:35.509Z,93957.00
2023-03-11T09:41:42.391Z,93959.00
2023-03-11T09:42:36.571Z,93963.00
2023-03-11T09:43:35.545Z,93967.00
2023-03-11T09:44:35.553Z,93969.00
2023-03-11T09:45:35.533Z,93969.00
2023-03-11T09:46:35.583Z,93971.00
2023-03-11T09:47:35.548Z,93971.00
2023-03-11T09:48:35.545Z,93969.00
2023-03-11T09:49:35.521Z,93969.00
2023-03-11T09:50:35.488Z,93969.00
2023-03-11T09:51:35.490Z,93975.00
2023-03-11T09:52:35.461Z,93973.00
2023-03-11T09:53:35.477Z,93971.00
2023-03-11T09:54:35.473Z,93971.00
2023-03-11T09:55:35.483Z,93971.00
2023-03-11T09:56:35.463Z,93969.00
2023-03-11T09:57:35.455Z,93967.00
2023-03-11T09:58:35.434Z,93969.00
2023-03-11T09:59:35.429Z,93969.00
2023-03-11T10:00:35.429Z,93973.00
2023-03-11T10:01:35.423Z,93971.00
2023-03-11T10:02:35.489Z,93977.00
2023-03-11T10:03:36.828Z,93975.00
2023-03-11T10:04:35.421Z,93977.00
2023-03-11T10:05:35.418Z,93979.00
2023-03-11T10:06:35.410Z,93979.00
2023-03-11T10:07:35.406Z,93979.00
2023-03-11T10:08:35.365Z,93979.00
2023-03-11T10:09:36.562Z,93985.00
2023-03-11T10:10:35.361Z,93983.00
2023-03-11T10:11:35.358Z,93981.00
2023-03-11T10:12:35.379Z,93987.00
2023-03-11T10:13:35.375Z,93985.00
2023-03-11T10:14:35.351Z,93983.00
2023-03-11T10:15:36.680Z,93983.00
2023-03-11T10:16:35.403Z,93987.00
2023-03-11T10:17:35.354Z,93985.00
2023-03-11T10:18:35.402Z,93987.00
2023-03-11T10:19:35.445Z,93989.00
2023-03-11T10:20:35.519Z,93991.00
2023-03-11T10:21:35.564Z,93993.00
2023-03-11T10:22:35.617Z,93995.00
2023-03-11T10:23:35.669Z,93993.00
2023-03-11T10:24:35.748Z,93993.00
2023-03-11T10:25:35.810Z,93989.00
2023-03-11T10:26:35.838Z,93987.00
2023-03-11T10:27:35.918Z,93987.00
2023-03-11T10:28:35.989Z,93987.00
2023-03-11T10:29:36.034Z,93989.00
2023-03-11T10:30:36.096Z,93991.00
2023-03-11T10:31:36.182Z,93991.00
2023-03-11T10:32:36.292Z,93985.00
2023-03-11T10:33:36.257Z,93985.00
2023-03-11T10:34:36.284Z,93983.00
2023-03-11T10:35:36.394Z,93983.00
2023-03-11T10:36:36.442Z,93987.00
2023-03-11T10:37:48.777Z,93985.00
2023-03-11T10:38:37.476Z,93989.00
2023-03-11T10:39:36.448Z,93987.00
2023-03-11T10:40:36.425Z,93996.00
2023-03-11T10:42:36.397Z,93991.00
2023-03-11T10:43:36.380Z,93989.00
2023-03-11T10:44:36.394Z,93989.00
2023-03-11T10:45:36.438Z,93995.00
2023-03-11T10:46:36.381Z,93993.00
2023-03-11T10:47:36.383Z,93991.00
2023-03-11T10:48:36.427Z,93989.00
2023-03-11T10:49:36.443Z,93983.00
2023-03-11T10:50:36.899Z,93993.00
2023-03-11T10:51:36.529Z,93993.00
2023-03-11T10:52:36.552Z,93996.00
2023-03-11T10:53:36.611Z,93993.00
2023-03-11T10:54:36.617Z,93989.00
2023-03-11T10:55:36.672Z,93989.00
2023-03-11T10:56:36.720Z,93989.00
2023-03-11T10:57:36.738Z,93987.00
2023-03-11T10:59:36.805Z,93983.00
2023-03-11T11:00:36.843Z,93989.00
2023-03-11T11:01:36.945Z,93983.00
2023-03-11T11:02:36.942Z,93983.00
2023-03-11T11:03:36.934Z,93985.00
2023-03-11T11:04:37.086Z,93991.00
2023-03-11T11:05:37.009Z,93991.00
2023-03-11T11:06:37.074Z,93983.00
2023-03-11T11:07:37.082Z,93985.00
2023-03-11T11:08:37.124Z,93989.00
2023-03-11T11:09:37.116Z,93993.00
2023-03-11T11:10:37.122Z,93991.00
2023-03-11T11:11:37.132Z,93993.00
2023-03-11T11:12:37.151Z,93995.00
2023-03-11T11:13:37.151Z,93989.00
2023-03-11T11:14:37.113Z,93985.00
2023-03-11T11:15:37.133Z,93989.00
2023-03-11T11:16:37.143Z,93987.00
2023-03-11T11:17:37.215Z,93991.00
2023-03-11T11:18:37.643Z,93981.00
2023-03-11T11:19:37.161Z,93985.00
2023-03-11T11:20:37.176Z,93985.00
2023-03-11T11:21:37.182Z,93983.00
2023-03-11T11:22:37.209Z,93987.00
2023-03-11T11:23:37.229Z,93979.00
2023-03-11T11:24:37.261Z,93977.00
2023-03-11T11:25:37.273Z,93975.00
2023-03-11T11:26:37.306Z,93977.00
2023-03-11T11:27:37.311Z,93969.00
2023-03-11T11:28:37.334Z,93973.00
2023-03-11T11:29:37.369Z,93975.00
2023-03-11T11:30:37.398Z,93977.00
2023-03-11T11:31:37.489Z,93971.00
2023-03-11T11:32:37.484Z,93975.00
2023-03-11T11:33:37.450Z,93977.00
2023-03-11T11:34:37.460Z,93973.00
2023-03-11T11:35:37.481Z,93971.00
2023-03-11T11:36:37.484Z,93969.00
2023-03-11T11:37:37.488Z,93973.00
2023-03-11T11:38:37.517Z,93969.00
2023-03-11T11:39:37.530Z,93967.00
2023-03-11T11:40:37.538Z,93975.00
2023-03-11T11:41:37.550Z,93973.00
2023-03-11T11:42:37.575Z,93975.00
2023-03-11T11:43:37.557Z,93977.00
2023-03-11T11:44:37.593Z,93975.00
2023-03-11T11:45:37.613Z,93981.00
2023-03-11T11:46:37.622Z,93975.00
2023-03-11T11:47:37.654Z,93975.00
2023-03-11T11:48:37.647Z,93973.00
2023-03-11T11:49:37.627Z,93977.00
2023-03-11T11:50:37.698Z,93973.00
2023-03-11T11:51:37.691Z,93975.00
2023-03-11T11:52:37.670Z,93973.00
2023-03-11T11:53:37.720Z,93969.00
2023-03-11T11:54:37.717Z,93969.00
2023-03-11T11:55:37.699Z,93967.00
2023-03-11T11:56:37.720Z,93961.00
2023-03-11T11:57:37.741Z,93965.00
2023-03-11T11:58:37.786Z,93963.00
2023-03-11T11:59:37.789Z,93963.00
2023-03-11T12:00:37.787Z,93961.00
2023-03-11T12:01:37.786Z,93959.00
2023-03-11T12:02:37.793Z,93955.00
2023-03-11T12:03:37.847Z,93955.00
2023-03-11T12:04:37.817Z,93953.00
2023-03-11T12:05:37.863Z,93949.00
2023-03-11T12:06:37.836Z,93949.00
2023-03-11T12:07:37.855Z,93948.00
2023-03-11T12:08:37.866Z,93946.00
2023-03-11T12:09:37.859Z,93948.00
2023-03-11T12:10:37.859Z,93948.00
2023-03-11T12:11:38.667Z,93942.00
2023-03-11T12:12:37.866Z,93938.00
2023-03-11T12:13:37.887Z,93940.00
2023-03-11T12:14:37.907Z,93938.00
2023-03-11T12:15:38.030Z,93936.00
2023-03-11T12:16:37.954Z,93932.00
2023-03-11T12:17:38.016Z,93934.00
2023-03-11T12:18:37.988Z,93930.00
2023-03-11T12:19:38.011Z,93926.00
2023-03-11T12:20:37.994Z,93920.00
2023-03-11T12:21:38.020Z,93922.00
2023-03-11T12:22:38.027Z,93920.00
2023-03-11T12:23:38.053Z,93918.00
2023-03-11T12:24:38.046Z,93916.00
2023-03-11T12:25:38.079Z,93918.00
2023-03-11T12:26:38.068Z,93916.00
2023-03-11T12:27:38.093Z,93918.00
2023-03-11T12:28:38.129Z,93916.00
2023-03-11T12:29:38.134Z,93918.00
2023-03-11T12:30:38.142Z,93914.00
2023-03-11T12:31:38.198Z,93916.00
2023-03-11T12:32:38.299Z,93920.00
2023-03-11T12:33:38.212Z,93910.00
2023-03-11T12:34:38.193Z,93908.00
2023-03-11T12:35:38.229Z,93906.00
2023-03-11T12:36:38.209Z,93904.00
2023-03-11T12:37:38.221Z,93902.00
2023-03-11T12:38:38.259Z,93902.00
2023-03-11T12:39:38.260Z,93904.00
2023-03-11T12:40:38.295Z,93904.00
2023-03-11T12:41:38.324Z,93902.00
2023-03-11T12:42:38.333Z,93901.00
2023-03-11T12:43:38.354Z,93895.00
2023-03-11T12:44:38.371Z,93893.00
2023-03-11T12:45:38.416Z,93897.00
2023-03-11T12:46:38.419Z,93899.00
2023-03-11T12:47:38.418Z,93899.00
2023-03-11T12:48:38.435Z,93893.00
2023-03-11T12:49:38.482Z,93891.00
2023-03-11T12:50:38.462Z,93893.00
2023-03-11T12:51:38.476Z,93891.00
2023-03-11T12:52:38.498Z,93889.00
2023-03-11T12:53:38.552Z,93883.00
2023-03-11T12:54:38.532Z,93887.00
2023-03-11T12:55:38.560Z,93879.00
2023-03-11T12:56:38.615Z,93881.00
2023-03-11T12:57:38.615Z,93883.00
2023-03-11T12:58:38.645Z,93887.00
2023-03-11T12:59:38.662Z,93879.00
2023-03-11T13:00:38.719Z,93883.00
2023-03-11T13:26:39.216Z,93881.00
2023-03-11T13:27:39.220Z,93883.00
2023-03-11T13:28:39.270Z,93881.00
2023-03-11T13:29:39.289Z,93881.00
2023-03-11T13:30:39.290Z,93889.00
2023-03-11T13:31:39.405Z,93887.00
2023-03-11T13:32:39.405Z,93883.00
2023-03-11T13:33:39.383Z,93889.00
2023-03-11T13:34:39.377Z,93885.00
2023-03-11T13:35:39.449Z,93893.00
2023-03-11T13:36:39.449Z,93889.00
2023-03-11T14:00:40.293Z,93904.00
2023-03-11T14:01:40.219Z,93906.00
2023-03-11T14:02:40.267Z,93906.00
2023-03-11T14:03:40.510Z,93906.00
2023-03-11T14:04:40.333Z,93914.00
2023-03-11T14:05:40.368Z,93918.00
2023-03-11T14:06:40.407Z,93914.00
2023-03-11T14:09:40.511Z,93906.00
2023-03-11T14:44:42.220Z,93928.00
2023-03-11T14:45:42.326Z,93936.00
2023-03-11T14:46:45.175Z,93930.00
2023-03-11T14:47:42.324Z,93934.00
2023-03-11T14:48:42.317Z,93938.00
2023-03-11T14:49:42.316Z,93938.00
2023-03-11T14:50:42.289Z,93948.00
2023-03-11T14:51:42.280Z,93948.00
2023-03-11T14:52:42.280Z,93948.00
2023-03-11T14:53:42.264Z,93948.00
2023-03-11T14:54:42.274Z,93951.00
2023-03-11T14:56:42.243Z,93946.00
2023-03-11T16:56:42.833Z,94093.00
2023-03-11T16:57:42.852Z,94097.00
2023-03-11T16:58:42.902Z,94098.00
2023-03-11T16:59:42.876Z,94102.00
2023-03-11T17:00:42.891Z,94095.00
2023-03-11T17:01:42.987Z,94098.00
2023-03-11T17:02:42.929Z,94104.00
2023-03-11T17:03:43.131Z,94106.00
2023-03-11T17:04:42.992Z,94112.00
2023-03-11T17:05:42.978Z,94110.00
2023-03-11T17:06:42.984Z,94110.00
2023-03-11T17:07:43.024Z,94108.00
2023-03-11T17:08:43.011Z,94108.00
2023-03-11T17:09:43.024Z,94110.00
2023-03-11T17:10:43.063Z,94108.00
2023-03-11T17:11:43.058Z,94110.00
2023-03-11T17:12:43.104Z,94112.00
2023-03-11T17:13:43.126Z,94110.00
2023-03-11T17:14:43.136Z,94120.00
2023-03-11T17:15:43.126Z,94126.00
2023-03-11T17:16:43.154Z,94124.00
2023-03-11T17:17:43.217Z,94132.00
2023-03-11T17:18:43.198Z,94132.00
2023-03-11T17:19:43.216Z,94136.00
2023-03-11T17:20:43.262Z,94140.00
2023-03-11T17:21:43.263Z,94143.00
2023-03-11T17:22:43.283Z,94147.00
2023-03-11T17:23:43.310Z,94147.00
2023-03-11T17:24:43.321Z,94149.00
2023-03-11T17:25:43.346Z,94149.00
2023-03-11T17:26:43.372Z,94151.00
2023-03-11T17:27:43.379Z,94153.00
2023-03-11T17:28:43.401Z,94149.00
2023-03-11T17:29:43.433Z,94151.00
2023-03-11T17:30:43.434Z,94155.00
2023-03-11T17:31:43.528Z,94151.00
2023-03-11T17:32:43.515Z,94155.00
2023-03-11T17:33:43.502Z,94161.00
2023-03-11T17:34:43.485Z,94165.00
2023-03-11T17:35:43.522Z,94167.00
2023-03-11T17:36:43.548Z,94169.00
2023-03-11T17:37:43.555Z,94169.00
2023-03-11T17:38:43.590Z,94177.00
2023-03-11T17:39:43.690Z,94177.00
2023-03-11T17:40:43.626Z,94181.00
2023-03-11T17:41:43.643Z,94185.00
2023-03-11T17:42:43.679Z,94187.00
2023-03-11T17:43:43.688Z,94190.00
2023-03-11T17:44:51.452Z,94192.00
2023-03-11T17:45:44.713Z,94198.00
2023-03-11T17:46:43.701Z,94198.00
2023-03-11T17:47:43.680Z,94198.00
2023-03-11T17:49:43.656Z,94210.00
2023-03-11T17:50:43.673Z,94208.00
2023-03-11T17:51:43.667Z,94210.00
2023-03-11T17:52:43.640Z,94214.00
2023-03-11T17:53:45.813Z,94218.00
2023-03-11T17:54:43.651Z,94216.00
2023-03-11T17:55:43.640Z,94216.00
2023-03-11T17:56:43.628Z,94220.00
2023-03-11T17:57:45.686Z,94220.00
2023-03-11T17:58:43.641Z,94220.00
2023-03-11T17:59:43.822Z,94226.00
2023-03-11T18:00:43.675Z,94228.00
2023-03-11T18:01:43.694Z,94230.00
2023-03-11T18:02:43.746Z,94228.00
2023-03-11T18:03:43.773Z,94230.00
2023-03-11T18:04:43.748Z,94232.00
2023-03-11T18:05:43.772Z,94236.00
2023-03-11T18:06:43.786Z,94236.00
2023-03-11T18:08:43.837Z,94236.00
2023-03-11T18:09:43.855Z,94241.00
2023-03-11T18:10:43.872Z,94245.00
2023-03-11T18:11:43.893Z,94247.00
2023-03-11T18:12:43.894Z,94251.00
2023-03-11T18:13:43.938Z,94249.00
2023-03-11T18:14:43.956Z,94251.00
2023-03-11T18:15:44.002Z,94253.00
2023-03-11T18:16:44.053Z,94253.00
2023-03-11T18:17:44.039Z,94253.00
2023-03-11T18:18:44.037Z,94259.00
2023-03-11T18:19:44.075Z,94263.00
2023-03-11T18:20:44.096Z,94267.00
2023-03-11T18:21:44.103Z,94267.00
2023-03-11T18:22:46.160Z,94269.00
2023-03-11T18:23:44.160Z,94269.00
2023-03-11T18:24:44.194Z,94271.00
2023-03-11T18:25:44.212Z,94269.00
2023-03-11T18:26:44.206Z,94275.00
2023-03-11T18:27:44.236Z,94281.00
2023-03-11T18:28:44.299Z,94281.00
2023-03-11T18:29:44.323Z,94283.00
2023-03-11T18:30:44.321Z,94285.00
2023-03-11T18:31:44.334Z,94285.00
2023-03-11T18:32:44.361Z,94287.00
2023-03-11T18:33:44.395Z,94291.00
2023-03-11T18:34:44.421Z,94294.00
2023-03-11T18:35:44.473Z,94292.00
2023-03-11T18:36:44.462Z,94296.00
2023-03-11T18:37:44.535Z,94294.00
2023-03-11T18:38:44.505Z,94298.00
2023-03-11T18:39:44.553Z,94300.00
2023-03-11T18:40:44.557Z,94300.00
2023-03-11T18:41:44.590Z,94302.00
2023-03-11T18:42:44.582Z,94306.00
2023-03-11T18:43:44.608Z,94306.00
2023-03-11T18:44:44.636Z,94310.00
2023-03-11T18:45:44.702Z,94312.00
2023-03-11T18:46:44.661Z,94312.00
2023-03-11T19:15:45.299Z,94359.00
2023-03-11T19:16:45.332Z,94359.00
2023-03-11T19:17:51.768Z,94359.00
2023-03-11T19:18:46.321Z,94361.00
2023-03-11T19:19:45.309Z,94363.00
2023-03-11T19:20:45.307Z,94365.00
2023-03-11T19:21:45.292Z,94369.00
2023-03-11T19:22:45.282Z,94369.00
2023-03-11T19:23:45.293Z,94379.00
2023-03-11T19:24:45.268Z,94381.00
2023-03-11T19:26:00.553Z,94381.00
2023-03-11T19:26:46.424Z,94381.00
2023-03-11T19:27:45.271Z,94384.00
2023-03-11T19:28:45.241Z,94384.00
2023-03-11T19:29:45.242Z,94384.00
2023-03-11T19:30:45.244Z,94386.00
2023-03-11T19:31:45.224Z,94388.00
2023-03-11T19:32:45.285Z,94390.00
2023-03-11T19:34:45.219Z,94396.00
2023-03-11T19:35:45.245Z,94398.00
2023-03-11T19:36:45.216Z,94398.00
2023-03-11T19:37:45.200Z,94400.00
2023-03-11T19:39:45.194Z,94402.00
2023-03-11T19:40:45.176Z,94402.00
2023-03-11T19:41:45.180Z,94404.00
2023-03-11T19:42:45.204Z,94406.00
2023-03-11T19:43:45.157Z,94408.00
2023-03-11T19:44:45.195Z,94412.00
2023-03-11T19:45:45.173Z,94408.00
2023-03-11T19:46:45.262Z,94408.00
2023-03-11T19:47:45.139Z,94408.00
2023-03-11T19:48:45.168Z,94410.00
2023-03-11T19:49:45.155Z,94410.00
2023-03-11T19:50:45.109Z,94412.00
2023-03-11T19:51:50.021Z,94412.00
2023-03-11T19:52:46.109Z,94414.00
2023-03-11T19:53:45.112Z,94414.00
2023-03-11T19:54:45.080Z,94416.00
2023-03-11T19:55:45.098Z,94418.00
2023-03-11T19:56:45.103Z,94418.00
2023-03-11T19:57:45.078Z,94422.00
2023-03-11T19:58:45.128Z,94422.00
2023-03-11T19:59:45.098Z,94426.00
2023-03-11T20:00:45.066Z,94428.00
2023-03-11T20:01:45.103Z,94430.00
2023-03-11T20:02:45.062Z,94432.00
2023-03-11T20:03:45.088Z,94434.00
2023-03-11T20:04:45.055Z,94434.00
2023-03-11T20:05:45.060Z,94434.00
2023-03-11T20:06:45.108Z,94434.00
2023-03-11T20:07:45.097Z,94434.00
2023-03-11T20:08:45.084Z,94436.00
2023-03-11T20:09:45.085Z,94434.00
2023-03-11T20:10:45.137Z,94436.00
2023-03-11T20:11:45.191Z,94436.00
2023-03-11T20:13:01.162Z,94439.00
2023-03-11T20:13:46.221Z,94441.00
2023-03-11T20:14:45.181Z,94441.00
2023-03-11T20:15:45.170Z,94441.00
2023-03-11T20:16:45.201Z,94443.00
2023-03-11T20:17:45.147Z,94445.00
2023-03-11T20:18:45.138Z,94445.00
2023-03-11T20:19:45.136Z,94447.00
2023-03-11T20:20:45.119Z,94451.00
2023-03-11T20:21:46.035Z,94451.00
2023-03-11T20:22:45.100Z,94451.00
2023-03-11T20:23:45.057Z,94453.00
2023-03-11T20:24:45.077Z,94453.00
2023-03-11T20:25:45.149Z,94453.00
2023-03-11T20:26:45.051Z,94453.00
2023-03-11T20:27:45.153Z,94453.00
2023-03-11T20:28:45.105Z,94457.00
2023-03-11T20:29:45.091Z,94459.00
2023-03-11T20:30:45.077Z,94457.00
2023-03-11T20:31:45.093Z,94457.00
2023-03-11T20:32:45.128Z,94459.00
2023-03-11T20:33:45.040Z,94461.00
2023-03-11T20:34:45.020Z,94457.00
2023-03-11T20:35:45.065Z,94457.00
2023-03-11T20:36:44.977Z,94461.00
2023-03-11T20:37:45.034Z,94461.00
2023-03-11T20:38:45.052Z,94459.00
2023-03-11T20:39:45.069Z,94463.00
2023-03-11T20:40:45.089Z,94461.00
2023-03-11T20:41:45.153Z,94463.00
2023-03-11T20:42:45.126Z,94467.00
2023-03-11T20:43:45.106Z,94467.00
2023-03-11T20:44:45.173Z,94471.00
2023-03-11T20:45:45.167Z,94469.00
2023-03-11T20:46:45.282Z,94473.00
2023-03-11T20:47:45.219Z,94473.00
2023-03-11T20:48:45.276Z,94475.00
2023-03-11T20:49:45.245Z,94477.00
2023-03-11T20:50:45.250Z,94477.00
2023-03-11T20:51:45.290Z,94475.00
2023-03-11T20:52:45.464Z,94477.00
2023-03-11T20:53:45.358Z,94479.00
2023-03-11T20:54:45.419Z,94481.00
2023-03-11T20:55:45.355Z,94479.00
2023-03-11T20:56:45.443Z,94479.00
2023-03-11T20:57:45.441Z,94483.00
2023-03-11T20:58:45.389Z,94481.00
2023-03-11T20:59:45.441Z,94483.00
2023-03-11T21:00:45.549Z,94485.00
2023-03-11T21:01:45.471Z,94486.00
2023-03-11T21:02:45.684Z,94486.00
2023-03-11T21:03:45.546Z,94485.00
2023-03-11T21:04:45.586Z,94486.00
2023-03-11T21:05:45.575Z,94485.00
2023-03-11T21:06:45.690Z,94485.00
2023-03-11T21:07:45.610Z,94485.00
2023-03-11T21:08:45.695Z,94481.00
2023-03-11T21:09:45.687Z,94481.00
2023-03-11T21:10:45.734Z,94481.00
2023-03-11T21:11:45.729Z,94481.00
2023-03-11T21:12:45.841Z,94481.00
2023-03-11T21:14:45.766Z,94479.00
2023-03-11T21:15:45.857Z,94483.00
2023-03-11T21:16:46.104Z,94483.00
2023-03-11T21:17:45.924Z,94483.00
2023-03-11T21:18:48.546Z,94483.00
2023-03-11T21:19:45.847Z,94488.00
2023-03-11T21:20:45.877Z,94483.00
2023-03-11T21:23:45.812Z,94485.00
2023-03-11T21:24:45.808Z,94485.00
2023-03-11T21:25:45.816Z,94488.00
2023-03-11T21:26:45.887Z,94490.00
2023-03-11T21:27:45.820Z,94492.00
2023-03-11T21:28:45.829Z,94494.00
2023-03-11T21:29:45.880Z,94498.00
2023-03-11T21:30:45.848Z,94496.00
2023-03-11T21:31:45.971Z,94498.00
2023-03-11T21:32:46.031Z,94496.00
2023-03-11T21:33:45.850Z,94500.00
2023-03-11T21:34:45.812Z,94500.00
2023-03-11T21:35:45.903Z,94504.00
2023-03-11T21:36:45.756Z,94500.00
2023-03-11T21:37:45.894Z,94504.00
2023-03-11T21:38:45.835Z,94506.00
2023-03-11T21:39:45.836Z,94504.00
2023-03-11T21:40:45.771Z,94504.00
2023-03-11T21:41:45.850Z,94500.00
2023-03-11T21:42:45.691Z,94502.00
2023-03-11T21:43:45.782Z,94502.00
2023-03-11T21:44:45.722Z,94502.00
2023-03-11T21:45:45.882Z,94504.00
2023-03-11T21:46:45.795Z,94500.00
2023-03-11T21:47:45.754Z,94500.00
2023-03-11T21:48:45.767Z,94500.00
2023-03-11T21:49:45.683Z,94502.00
2023-03-11T21:50:45.729Z,94508.00
2023-03-11T21:51:45.760Z,94504.00
2023-03-11T21:52:45.778Z,94506.00
2023-03-11T21:53:45.859Z,94508.00
2023-03-11T21:54:45.744Z,94508.00
2023-03-11T21:55:45.693Z,94508.00
2023-03-11T21:56:45.648Z,94510.00
2023-03-11T21:57:45.671Z,94512.00
2023-03-11T21:58:45.694Z,94510.00
2023-03-11T21:59:45.739Z,94514.00
2023-03-11T22:00:45.673Z,94512.00
2023-03-11T22:01:45.707Z,94512.00
2023-03-11T22:02:45.747Z,94512.00
2023-03-11T22:03:45.668Z,94508.00
2023-03-11T22:04:45.751Z,94512.00
2023-03-11T22:05:45.545Z,94512.00
2023-03-11T22:06:45.525Z,94512.00
2023-03-11T22:07:45.619Z,94512.00
2023-03-11T22:08:45.601Z,94512.00
2023-03-11T22:09:45.679Z,94510.00
2023-03-11T22:10:45.562Z,94514.00
2023-03-11T22:11:45.594Z,94516.00
2023-03-11T22:12:45.618Z,94516.00
2023-03-11T22:13:45.563Z,94516.00
2023-03-11T22:14:45.574Z,94514.00
2023-03-11T22:15:45.546Z,94514.00
2023-03-11T22:16:45.528Z,94512.00
2023-03-11T22:17:45.674Z,94510.00
2023-03-11T22:18:45.580Z,94514.00
2023-03-11T22:19:45.575Z,94514.00
2023-03-11T22:20:45.492Z,94516.00
2023-03-11T22:21:45.546Z,94518.00
2023-03-11T22:22:45.469Z,94520.00
2023-03-11T22:23:45.437Z,94518.00
2023-03-11T22:24:45.406Z,94520.00
2023-03-11T22:25:45.408Z,94522.00
2023-03-11T22:26:45.392Z,94520.00
2023-03-11T22:27:45.459Z,94516.00
2023-03-11T22:29:45.422Z,94522.00
2023-03-11T22:30:45.451Z,94522.00
2023-03-11T22:31:45.452Z,94522.00
2023-03-11T22:32:45.439Z,94520.00
2023-03-11T22:33:45.449Z,94518.00
2023-03-11T22:34:45.474Z,94520.00
2023-03-11T22:35:45.478Z,94524.00
2023-03-11T22:36:45.504Z,94524.00
2023-03-11T22:37:45.541Z,94526.00
2023-03-11T22:38:45.555Z,94524.00
2023-03-11T22:39:45.547Z,94520.00
2023-03-11T22:40:45.613Z,94522.00
2023-03-11T22:41:45.589Z,94522.00
2023-03-11T22:42:45.622Z,94524.00
2023-03-11T22:43:45.656Z,94526.00
2023-03-11T22:44:45.677Z,94528.00
2023-03-11T22:45:45.754Z,94526.00
2023-03-11T22:46:45.730Z,94526.00
2023-03-11T22:47:45.760Z,94528.00
2023-03-11T22:48:45.798Z,94533.00
2023-03-11T22:49:45.806Z,94530.00
2023-03-11T22:50:45.828Z,94530.00
2023-03-11T22:51:45.836Z,94530.00
2023-03-11T22:52:45.889Z,94533.00
2023-03-11T22:53:45.917Z,94533.00
2023-03-11T22:54:46.058Z,94533.00
2023-03-11T22:55:45.929Z,94535.00
2023-03-11T22:56:45.971Z,94537.00
2023-03-11T22:57:45.999Z,94535.00
2023-03-11T22:58:46.034Z,94537.00
2023-03-11T22:59:46.051Z,94541.00
2023-03-11T23:00:46.071Z,94537.00
2023-03-11T23:01:46.109Z,94539.00
2023-03-11T23:02:46.169Z,94539.00
2023-03-11T23:03:46.194Z,94543.00
2023-03-11T23:04:46.216Z,94543.00
2023-03-11T23:05:46.207Z,94547.00
2023-03-11T23:06:46.220Z,94545.00
2023-03-11T23:07:46.251Z,94543.00
2023-03-11T23:08:46.321Z,94543.00
2023-03-11T23:09:46.313Z,94547.00
2023-03-11T23:10:46.347Z,94547.00
2023-03-11T23:11:46.335Z,94545.00
2023-03-11T23:12:46.395Z,94543.00
2023-03-11T23:13:46.396Z,94545.00
2023-03-11T23:14:46.399Z,94545.00
2023-03-11T23:15:46.473Z,94543.00
2023-03-11T23:16:46.535Z,94547.00
2023-03-11T23:17:46.500Z,94549.00
2023-03-11T23:18:46.548Z,94549.00
2023-03-11T23:19:46.561Z,94551.00
2023-03-11T23:20:46.608Z,94551.00
2023-03-11T23:21:46.635Z,94559.00
2023-03-11T23:22:46.658Z,94559.00
2023-03-11T23:23:46.670Z,94559.00
2023-03-11T23:24:46.695Z,94559.00
2023-03-11T23:25:46.730Z,94555.00
2023-03-11T23:26:46.772Z,94555.00
2023-03-11T23:27:46.763Z,94555.00
2023-03-11T23:28:46.793Z,94557.00
2023-03-11T23:29:46.841Z,94561.00
2023-03-11T23:30:46.985Z,94561.00
2023-03-11T23:31:46.856Z,94563.00
2023-03-11T23:32:46.978Z,94565.00
2023-03-11T23:33:46.934Z,94567.00
2023-03-11T23:34:46.929Z,94567.00
2023-03-11T23:35:46.977Z,94565.00
2023-03-11T23:36:47.001Z,94565.00
2023-03-11T23:37:47.000Z,94563.00
2023-03-11T23:38:47.036Z,94563.00
2023-03-11T23:39:47.041Z,94567.00
2023-03-11T23:40:47.098Z,94571.00